Lance — LGKI — position and weather

sailwx.info

Track history (hours):
 
Tides and Currents Weather Stations Pressure Air Temp Water Temp Dewpoint Dewpoint Depression Visibility Wind Speed Wind Dir Waves Ship Positions

Oceanographic research ship Lance (Norway)

Detailed information on ship capabilities available from University of Delaware's Ocean Information Center and ARCUS's ALIAS (Arctic Logistics Information and Support) project.

Last reported at 2019-Jun-19 20:30 UTC. Time now 2019-Jun-19 20:54 UTC.
Position N 71°05' E 024°30'.

Type: Ship. MMSI: 258236000.

Date/timePositionNaut miles runAvg speedWind from/ knotsBaromVisibWave heightAir tempDewpointWater temp
2019-Jun-19 20:30N 71°05' E 024°30'611.2
2019-Jun-19 20:00N 71°10' E 024°38'511.0
2019-Jun-19 19:31N 71°15' E 024°47'510.9
2019-Jun-19 19:01N 71°20' E 024°55'611.4
2019-Jun-19 18:30N 71°25' E 025°04'611.1
2019-Jun-19 18:00N 71°30' E 025°12'510.9
2019-Jun-19 17:30N 71°34' E 025°20'611.0
2019-Jun-19 17:00N 71°39' E 025°28'510.7
2019-Jun-19 16:30N 71°44' E 025°36'510.8
2019-Jun-19 16:00N 71°49' E 025°43'510.7
2019-Jun-19 15:30N 71°54' E 025°51'510.8
2019-Jun-19 15:00N 71°59' E 025°58'510.9
2019-Jun-19 14:31N 72°04' E 026°05'510.8
2019-Jun-19 14:00N 72°09' E 026°12'  
2019-Jun-15 09:58N 72°36' E 027°57'510.4
2019-Jun-15 09:30N 72°32' E 027°48'510.3
2019-Jun-15 09:00N 72°28' E 027°38'510.5
2019-Jun-15 08:30N 72°23' E 027°28'510.6
2019-Jun-15 08:00N 72°19' E 027°18'510.5
2019-Jun-15 07:30N 72°15' E 027°09'610.4
2019-Jun-15 06:54N 72°09' E 026°58'410.3
2019-Jun-15 06:30N 72°06' E 026°51'510.3
2019-Jun-15 06:00N 72°01' E 026°42'510.5
2019-Jun-15 05:30N 71°57' E 026°32'510.4
2019-Jun-15 05:01N 71°53' E 026°23'510.5
2019-Jun-15 04:30N 71°48' E 026°13'510.6
2019-Jun-15 04:00N 71°44' E 026°04'510.5
2019-Jun-15 03:31N 71°40' E 025°54'510.6
2019-Jun-15 03:00N 71°35' E 025°45'510.6
2019-Jun-15 02:30N 71°31' E 025°34'510.9
2019-Jun-15 02:00N 71°27' E 025°24'510.8
2019-Jun-15 01:30N 71°22' E 025°14'510.9
2019-Jun-15 01:00N 71°18' E 025°04'611.1
2019-Jun-15 00:30N 71°14' E 024°53'511.0
2019-Jun-15 00:00N 71°09' E 024°43'611.1
2019-Jun-14 23:30N 71°05' E 024°32'611.2
2019-Jun-14 23:00N 71°00' E 024°22'611.2
2019-Jun-14 22:30N 70°56' E 024°13'611.7
2019-Jun-14 22:00N 70°52' E 023°59'511.0
2019-Jun-14 21:30N 70°48' E 023°47'610.8
2019-Jun-14 21:00N 70°44' E 023°35'510.9
2019-Jun-14 20:30N 70°40' E 023°24'510.9
2019-Jun-14 20:00N 70°36' E 023°14'510.8
2019-Jun-14 19:30N 70°32' E 023°02'510.7
2019-Jun-14 19:00N 70°30' E 022°48'510.9
2019-Jun-14 18:30N 70°28' E 022°32'511.0
2019-Jun-14 18:00N 70°27' E 022°16'510.4
2019-Jun-14 17:30N 70°26' E 022°01'510.3
2019-Jun-14 17:00N 70°24' E 021°46'510.0
2019-Jun-14 16:30N 70°21' E 021°35'510.4
2019-Jun-14 16:00N 70°18' E 021°24'510.6
2019-Jun-14 15:30N 70°15' E 021°11'510.3
2019-Jun-14 15:00N 70°10' E 021°04'510.3
2019-Jun-14 14:30N 70°05' E 020°57'510.0
2019-Jun-14 14:01N 70°02' E 020°46'510.4
2019-Jun-14 13:30N 70°01' E 020°31'510.8
2019-Jun-14 13:00N 69°59' E 020°16'5 9.9
2019-Jun-14 12:31N 69°56' E 020°04'510.1
2019-Jun-14 12:00N 69°53' E 019°53'510.1
2019-Jun-14 11:30N 69°50' E 019°41'5 9.6
2019-Jun-14 11:00N 69°49' E 019°27'5 9.7
2019-Jun-14 10:30N 69°47' E 019°14'6 8.8
2019-Jun-14 09:49N 69°42' E 019°03'5 8.0
2019-Jun-14 09:12N 69°38' E 018°56'0 0.0
2019-Jun-14 09:00N 69°38' E 018°56'0 0.0
2019-Jun-14 08:30N 69°38' E 018°56'0 0.0
2019-Jun-14 08:00N 69°38' E 018°56'0 0.0
2019-Jun-14 07:30N 69°38' E 018°56'0 0.0
2019-Jun-14 07:00N 69°38' E 018°56'0 0.0
2019-Jun-14 06:29N 69°38' E 018°56'0 0.0
2019-Jun-14 06:00N 69°38' E 018°56'0 0.0
2019-Jun-14 05:30N 69°38' E 018°56'0 0.0
2019-Jun-14 05:01N 69°38' E 018°56'0 0.0
2019-Jun-14 04:30N 69°38' E 018°56'0 0.0
2019-Jun-14 04:01N 69°38' E 018°56'0 0.0
2019-Jun-14 03:30N 69°38' E 018°56'0 0.0
2019-Jun-14 03:01N 69°38' E 018°56'0 0.0
2019-Jun-14 02:30N 69°38' E 018°56'0 0.0
2019-Jun-14 02:00N 69°38' E 018°56'0 0.0
2019-Jun-14 01:30N 69°38' E 018°56'0 0.0
2019-Jun-14 01:00N 69°38' E 018°56'0 0.0
2019-Jun-14 00:30N 69°38' E 018°56'0 0.0
2019-Jun-14 00:00N 69°38' E 018°56'0 0.0
2019-Jun-13 23:30N 69°38' E 018°56'0 0.0
2019-Jun-13 23:00N 69°38' E 018°56'0 0.0
2019-Jun-13 22:30N 69°38' E 018°56'0 0.0
2019-Jun-13 22:00N 69°38' E 018°56'0 0.0
2019-Jun-13 21:30N 69°38' E 018°56'0 0.0
2019-Jun-13 21:00N 69°38' E 018°56'0 0.0
2019-Jun-13 20:30N 69°38' E 018°56'0 0.0
2019-Jun-13 20:00N 69°38' E 018°56'0 0.0
2019-Jun-13 19:31N 69°38' E 018°56'0 0.0
2019-Jun-13 16:52N 69°38' E 018°56'0 0.0
2019-Jun-13 16:21N 69°38' E 018°56'0 0.0
2019-Jun-13 16:00N 69°38' E 018°56'0 0.0
2019-Jun-13 15:30N 69°38' E 018°56'0 0.0
2019-Jun-13 15:01N 69°38' E 018°56'0 0.0
2019-Jun-13 14:30N 69°38' E 018°56'0 0.0
2019-Jun-13 14:00N 69°38' E 018°56'0 0.0
2019-Jun-13 13:30N 69°38' E 018°56'0 0.0
2019-Jun-13 13:00N 69°38' E 018°56'0 0.0
2019-Jun-13 12:30N 69°38' E 018°56'0 0.0
2019-Jun-13 12:00N 69°38' E 018°56'0 0.0
2019-Jun-13 11:30N 69°38' E 018°56'0 0.0
2019-Jun-13 11:00N 69°38' E 018°56'0 0.0
2019-Jun-13 10:30N 69°38' E 018°56'0 0.0
2019-Jun-13 10:00N 69°38' E 018°56'0 0.0
2019-Jun-13 09:30N 69°38' E 018°56'0 0.0
2019-Jun-13 09:00N 69°38' E 018°56'0 0.0
2019-Jun-13 08:30N 69°38' E 018°56'0 0.0
2019-Jun-13 08:01N 69°38' E 018°56'0 0.0
2019-Jun-13 07:30N 69°38' E 018°56'0 0.0
2019-Jun-13 07:00N 69°38' E 018°56'0 0.0
2019-Jun-13 06:30N 69°38' E 018°56'0 0.0
2019-Jun-13 06:00N 69°38' E 018°56'0 0.0
2019-Jun-13 05:30N 69°38' E 018°56'0 0.0
2019-Jun-13 05:00N 69°38' E 018°56'0 0.0
2019-Jun-13 04:30N 69°38' E 018°56'0 0.0
2019-Jun-13 04:00N 69°38' E 018°56'0 0.0
2019-Jun-13 03:31N 69°38' E 018°56'0 0.0
2019-Jun-13 03:00N 69°38' E 018°56'0 0.0
2019-Jun-13 02:30N 69°38' E 018°56'0 0.0
2019-Jun-13 02:00N 69°38' E 018°56'0 0.0
2019-Jun-13 01:30N 69°38' E 018°56'0 0.0
2019-Jun-13 01:00N 69°38' E 018°56'0 0.0
2019-Jun-13 00:30N 69°38' E 018°56'0 0.0
2019-Jun-13 00:00N 69°38' E 018°56'0 0.0
2019-Jun-12 23:30N 69°38' E 018°56'0 0.0
2019-Jun-12 23:00N 69°38' E 018°56'0 0.0
2019-Jun-12 22:30N 69°38' E 018°56'0 0.0
2019-Jun-12 22:00N 69°38' E 018°56'0 0.0
2019-Jun-12 21:30N 69°38' E 018°56'0 0.0
2019-Jun-12 21:00N 69°38' E 018°56'0 0.0
2019-Jun-12 20:30N 69°38' E 018°56'0 0.0
2019-Jun-12 20:00N 69°38' E 018°56'0 0.0
2019-Jun-12 19:30N 69°38' E 018°56'0 0.0
2019-Jun-12 19:00N 69°38' E 018°56'0 0.0
2019-Jun-12 18:30N 69°38' E 018°56'0 0.0
2019-Jun-12 18:01N 69°38' E 018°56'0 0.0
2019-Jun-12 17:31N 69°38' E 018°56'0 0.0
2019-Jun-12 17:00N 69°38' E 018°56'0 0.0
2019-Jun-12 16:30N 69°38' E 018°56'0 0.0
2019-Jun-12 16:01N 69°38' E 018°56'0 0.0
2019-Jun-12 15:30N 69°38' E 018°56'0 0.0
2019-Jun-12 15:00N 69°38' E 018°56'0 0.0
2019-Jun-12 14:30N 69°38' E 018°56'0 0.0
2019-Jun-12 14:01N 69°38' E 018°56'0 0.0
2019-Jun-12 13:30N 69°38' E 018°56'0 0.0
2019-Jun-12 13:00N 69°38' E 018°56'0 0.0
2019-Jun-12 12:30N 69°38' E 018°56'0 0.0
2019-Jun-12 12:00N 69°38' E 018°56'0 0.0
2019-Jun-12 11:30N 69°38' E 018°56'0 0.0
2019-Jun-12 10:59N 69°38' E 018°56'0 0.0
2019-Jun-12 10:31N 69°38' E 018°56'0 0.0
2019-Jun-12 10:00N 69°38' E 018°56'0 0.0
2019-Jun-12 09:30N 69°38' E 018°56'0 0.0
2019-Jun-12 09:00N 69°38' E 018°56'0 0.0
2019-Jun-12 08:30N 69°38' E 018°56'0 0.0
2019-Jun-12 08:00N 69°38' E 018°56'0 0.0
2019-Jun-12 07:30N 69°38' E 018°56'0 0.0
2019-Jun-12 07:00N 69°38' E 018°56'0 0.1
2019-Jun-12 06:30N 69°38' E 018°56'0 0.1
2019-Jun-12 06:00N 69°38' E 018°56'0 0.0
2019-Jun-12 05:30N 69°38' E 018°56'0 0.0
2019-Jun-12 05:01N 69°38' E 018°56'0 0.0
2019-Jun-12 04:30N 69°38' E 018°56'0 0.0
2019-Jun-12 04:00N 69°38' E 018°56'0 0.0
2019-Jun-12 03:30N 69°38' E 018°56'0 0.0
2019-Jun-12 03:00N 69°38' E 018°56'0 0.0
2019-Jun-12 02:00N 69°38' E 018°56'0 0.0
2019-Jun-12 01:30N 69°38' E 018°56'0 0.0
2019-Jun-12 01:00N 69°38' E 018°56'0 0.0
2019-Jun-12 00:30N 69°38' E 018°56'0 0.0
2019-Jun-12 00:00N 69°38' E 018°56'0 0.0
2019-Jun-11 23:30N 69°38' E 018°56'0 0.0
2019-Jun-11 23:01N 69°38' E 018°56'0 0.0
2019-Jun-11 22:30N 69°38' E 018°56'0 0.0
2019-Jun-11 22:00N 69°38' E 018°56'0 0.0
2019-Jun-11 21:30N 69°38' E 018°56'0 0.0
2019-Jun-11 21:00N 69°38' E 018°56'0 0.0
2019-Jun-11 20:30N 69°38' E 018°56'0 0.0
2019-Jun-11 19:59N 69°38' E 018°56'0 0.0
2019-Jun-11 19:30N 69°38' E 018°56'0 0.0
2019-Jun-11 19:00N 69°38' E 018°56'0 0.0
2019-Jun-11 18:30N 69°38' E 018°56'0 0.0
2019-Jun-11 18:00N 69°38' E 018°56'0 0.0
2019-Jun-11 17:30N 69°38' E 018°56'0 0.0
2019-Jun-11 17:00N 69°38' E 018°56'0 0.0
2019-Jun-11 16:30N 69°38' E 018°56'0 0.0
2019-Jun-11 16:00N 69°38' E 018°56'0 0.0
2019-Jun-11 15:31N 69°38' E 018°56'0 0.0
2019-Jun-11 15:00N 69°38' E 018°56'0 0.0
2019-Jun-11 14:30N 69°38' E 018°56'0 0.0
2019-Jun-11 14:00N 69°38' E 018°56'0 0.0
2019-Jun-11 13:30N 69°38' E 018°56'0 0.0
2019-Jun-11 13:00N 69°38' E 018°56'0 0.0
2019-Jun-11 12:30N 69°38' E 018°56'0 0.0
2019-Jun-11 12:00N 69°38' E 018°56'0 0.0
2019-Jun-11 11:30N 69°38' E 018°56'0 0.0
2019-Jun-11 11:00N 69°38' E 018°56'0 0.0
2019-Jun-11 10:30N 69°38' E 018°56'0 0.0
2019-Jun-11 10:01N 69°38' E 018°56'0 0.0
2019-Jun-11 09:30N 69°38' E 018°56'0 0.0
2019-Jun-11 09:00N 69°38' E 018°56'0 0.0
2019-Jun-11 08:30N 69°38' E 018°56'0 0.0
2019-Jun-11 08:00N 69°38' E 018°56'0 0.0
2019-Jun-11 07:31N 69°38' E 018°56'0 0.0
2019-Jun-11 07:00N 69°38' E 018°56'0 0.0
2019-Jun-11 06:30N 69°38' E 018°56'0 0.0
2019-Jun-11 06:00N 69°38' E 018°56'0 0.0
2019-Jun-11 05:31N 69°38' E 018°56'0 0.0
2019-Jun-11 05:01N 69°38' E 018°56'0 0.0
2019-Jun-11 04:31N 69°38' E 018°56'0 0.0
2019-Jun-11 04:01N 69°38' E 018°56'0 0.0
2019-Jun-11 03:30N 69°38' E 018°56'0 0.0
2019-Jun-11 03:00N 69°38' E 018°56'0 0.0
2019-Jun-11 02:30N 69°38' E 018°56'0 0.0
2019-Jun-11 02:00N 69°38' E 018°56'0 0.0
2019-Jun-11 01:30N 69°38' E 018°56'0 0.0
2019-Jun-11 01:00N 69°38' E 018°56'0 0.0
2019-Jun-11 00:30N 69°38' E 018°56'0 0.0
2019-Jun-11 00:01N 69°38' E 018°56'0 0.0
2019-Jun-10 23:30N 69°38' E 018°56'0 0.0
2019-Jun-10 23:00N 69°38' E 018°56'0 0.0
2019-Jun-10 22:30N 69°38' E 018°56'0 0.0
2019-Jun-10 22:01N 69°38' E 018°56'0 0.0
2019-Jun-10 21:31N 69°38' E 018°56'0 0.0
2019-Jun-10 21:00N 69°38' E 018°56'0 0.0
2019-Jun-10 20:29N 69°38' E 018°56'0 0.0
2019-Jun-10 20:01N 69°38' E 018°56'0 0.0
2019-Jun-10 19:30N 69°38' E 018°56'0 0.0
2019-Jun-10 19:00N 69°38' E 018°56'3 5.6
2019-Jun-10 18:31N 69°40' E 019°00'510.6
2019-Jun-10 18:00N 69°46' E 019°06'511.1
2019-Jun-10 17:30N 69°48' E 019°20'511.1
2019-Jun-10 17:00N 69°53' E 019°27'510.9
2019-Jun-10 16:30N 69°57' E 019°38'5 9.4
2019-Jun-10 16:00N 70°02' E 019°39'2 5.0
2019-Jun-10 15:30N 70°01' E 019°33'1 2.5
2019-Jun-10 15:00N 69°60' E 019°33'0 0.0
2019-Jun-10 14:30N 69°60' E 019°34'0 0.0
2019-Jun-10 14:01N 69°60' E 019°34'0 0.0
2019-Jun-10 13:30N 69°60' E 019°34'0 0.0
2019-Jun-10 13:00N 69°60' E 019°34'0 0.0
2019-Jun-10 12:30N 69°60' E 019°34'0 0.0
2019-Jun-10 12:00N 69°60' E 019°34'2 3.4
2019-Jun-10 11:30N 70°01' E 019°33'3 5.6
2019-Jun-10 11:00N 70°01' E 019°41'4 8.9
2019-Jun-10 10:31N 69°57' E 019°36'5 9.6
2019-Jun-10 10:00N 69°53' E 019°27'5 9.5
2019-Jun-10 09:30N 69°49' E 019°21'4 8.9
2019-Jun-10 09:00N 69°46' E 019°10'4 8.3
2019-Jun-10 08:30N 69°43' E 019°03'4 8.4
2019-Jun-10 08:00N 69°39' E 018°59'0 0.6
2019-Jun-10 07:30N 69°39' E 018°59'0 0.0
2019-Jun-10 07:00N 69°39' E 018°59'0 0.0
2019-Jun-10 06:30N 69°39' E 018°59'0 0.0
2019-Jun-10 06:00N 69°39' E 018°59'0 0.0
2019-Jun-10 05:30N 69°39' E 018°59'0 0.0
2019-Jun-10 05:00N 69°39' E 018°59'0 0.0
2019-Jun-10 04:30N 69°39' E 018°59'0 0.0
2019-Jun-10 04:00N 69°39' E 018°59'0 0.0
2019-Jun-10 03:31N 69°39' E 018°59'0 0.0
2019-Jun-10 03:00N 69°39' E 018°59'0 0.0
2019-Jun-10 02:30N 69°39' E 018°59'0 0.0
2019-Jun-10 02:00N 69°39' E 018°59'0 0.0
2019-Jun-10 01:30N 69°39' E 018°59'0 0.0
2019-Jun-10 01:00N 69°39' E 018°59'0 0.0
2019-Jun-10 00:30N 69°39' E 018°59'0 0.0
2019-Jun-10 00:00N 69°39' E 018°59'0 0.0
2019-Jun-09 23:30N 69°39' E 018°59'0 0.0
2019-Jun-09 23:01N 69°39' E 018°59'0 0.0
2019-Jun-09 22:30N 69°39' E 018°59'0 0.0
2019-Jun-09 22:00N 69°39' E 018°59'0 0.0
2019-Jun-09 21:30N 69°39' E 018°59'0 0.0
2019-Jun-09 21:00N 69°39' E 018°59'0 0.0
2019-Jun-09 20:31N 69°39' E 018°59'0 0.0
2019-Jun-09 20:00N 69°39' E 018°59'0 0.0
2019-Jun-09 19:30N 69°39' E 018°59'0 0.0
2019-Jun-09 19:00N 69°39' E 018°59'0 0.0
2019-Jun-09 18:31N 69°39' E 018°59'0 0.0
2019-Jun-09 17:59N 69°39' E 018°59'0 0.0
2019-Jun-09 17:30N 69°39' E 018°59'0 0.0
2019-Jun-09 17:00N 69°39' E 018°59'0 0.0
2019-Jun-09 16:30N 69°39' E 018°59'0 0.0
2019-Jun-09 16:00N 69°39' E 018°59'0 0.0
2019-Jun-09 15:30N 69°39' E 018°59'0 0.0
2019-Jun-09 15:00N 69°39' E 018°59'0 0.0
2019-Jun-09 14:30N 69°39' E 018°59'0 0.0
2019-Jun-09 14:00N 69°39' E 018°59'0 0.0
2019-Jun-09 13:30N 69°39' E 018°59'0 0.0
2019-Jun-09 13:00N 69°39' E 018°59'0 0.0
2019-Jun-09 12:30N 69°39' E 018°59'0 0.0
2019-Jun-09 12:00N 69°39' E 018°59'0 0.0
2019-Jun-09 11:29N 69°39' E 018°59'0 0.0
2019-Jun-09 11:00N 69°39' E 018°59'0 0.0
2019-Jun-09 10:31N 69°39' E 018°59'0 0.0
2019-Jun-09 10:00N 69°39' E 018°59'0 0.0
2019-Jun-09 09:30N 69°39' E 018°59'0 0.0
2019-Jun-09 09:00N 69°39' E 018°59'0 0.0
2019-Jun-09 08:30N 69°39' E 018°59'0 0.0
2019-Jun-09 08:00N 69°39' E 018°59'0 0.0
2019-Jun-09 07:30N 69°39' E 018°59'0 0.0
2019-Jun-09 07:00N 69°39' E 018°59'0 0.0
2019-Jun-09 06:31N 69°39' E 018°59'0 0.0
2019-Jun-09 06:00N 69°39' E 018°59'0 0.0
2019-Jun-09 05:30N 69°39' E 018°59'0 0.0
2019-Jun-09 05:00N 69°39' E 018°59'0 0.0
2019-Jun-09 04:00N 69°39' E 018°59'0 0.0
2019-Jun-09 03:30N 69°39' E 018°59'0 0.0
2019-Jun-09 03:00N 69°39' E 018°59'0 0.0
2019-Jun-09 02:30N 69°39' E 018°59'0 0.0
2019-Jun-09 02:01N 69°39' E 018°59'0 0.0
2019-Jun-09 01:30N 69°39' E 018°59'0 0.0
2019-Jun-09 01:00N 69°39' E 018°59'0 0.0
2019-Jun-09 00:30N 69°39' E 018°59'0 0.0
2019-Jun-09 00:00N 69°39' E 018°59'0 0.0
2019-Jun-08 23:30N 69°39' E 018°59'0 0.0
2019-Jun-08 23:00N 69°39' E 018°59'0 0.0
2019-Jun-08 22:30N 69°39' E 018°59'0 0.0
2019-Jun-08 22:00N 69°39' E 018°59'0 0.0
2019-Jun-08 21:30N 69°39' E 018°59'0 0.0
2019-Jun-08 21:01N 69°39' E 018°59'0 0.0
2019-Jun-08 20:30N 69°39' E 018°59'0 0.0
2019-Jun-08 20:01N 69°39' E 018°59'0 0.0
2019-Jun-08 19:30N 69°39' E 018°59'0 0.0
2019-Jun-08 19:00N 69°39' E 018°59'0 0.0
2019-Jun-08 18:31N 69°39' E 018°59'0 0.0
2019-Jun-08 18:00N 69°39' E 018°59'0 0.0
2019-Jun-08 17:30N 69°39' E 018°59'0 0.0
2019-Jun-08 17:00N 69°39' E 018°59'0 0.0
2019-Jun-08 16:30N 69°39' E 018°59'0 0.0
2019-Jun-08 16:00N 69°39' E 018°59'0 0.0
2019-Jun-08 15:30N 69°39' E 018°59'0 0.0
2019-Jun-08 15:01N 69°39' E 018°59'0 0.0
2019-Jun-08 14:30N 69°39' E 018°59'0 0.0
2019-Jun-08 14:00N 69°39' E 018°59'0 0.0
2019-Jun-08 13:30N 69°39' E 018°59'0 0.0
2019-Jun-08 13:00N 69°39' E 018°59'0 0.0
2019-Jun-08 12:30N 69°39' E 018°59'0 0.0
2019-Jun-08 12:00N 69°39' E 018°59'0 0.0
2019-Jun-08 11:30N 69°39' E 018°59'0 0.0
2019-Jun-08 11:00N 69°39' E 018°59'0 0.0
2019-Jun-08 10:30N 69°39' E 018°59'0 0.0
2019-Jun-08 10:00N 69°39' E 018°59'0 0.0
2019-Jun-08 09:31N 69°39' E 018°59'0 0.0
2019-Jun-08 09:00N 69°39' E 018°59'0 0.0
2019-Jun-08 08:30N 69°39' E 018°59'0 0.0
2019-Jun-08 08:00N 69°39' E 018°59'0 0.0
2019-Jun-08 07:30N 69°39' E 018°59'0 0.0
2019-Jun-08 07:00N 69°39' E 018°59'0 0.0
2019-Jun-08 06:30N 69°39' E 018°59'0 0.0
2019-Jun-08 06:00N 69°39' E 018°59'0 0.0
2019-Jun-08 05:30N 69°39' E 018°59'0 0.0
2019-Jun-08 05:00N 69°39' E 018°59'0 0.0
2019-Jun-08 04:30N 69°39' E 018°59'0 0.0
2019-Jun-08 04:00N 69°39' E 018°59'0 0.0
2019-Jun-08 03:30N 69°39' E 018°59'0 0.0
2019-Jun-08 03:00N 69°39' E 018°59'0 0.0
2019-Jun-08 02:30N 69°39' E 018°59'0 0.0
2019-Jun-08 02:01N 69°39' E 018°59'0 0.0
2019-Jun-08 01:31N 69°39' E 018°59'0 0.0
2019-Jun-08 01:00N 69°39' E 018°59'0 0.0
2019-Jun-08 00:31N 69°39' E 018°59'0 0.0
2019-Jun-08 00:00N 69°39' E 018°59'0 0.0
2019-Jun-07 23:31N 69°39' E 018°59'0 0.0
2019-Jun-07 23:00N 69°39' E 018°59'0 0.0
2019-Jun-07 22:30N 69°39' E 018°59'0 0.0
2019-Jun-07 22:00N 69°39' E 018°59'0 0.0
2019-Jun-07 21:31N 69°39' E 018°59'0 0.0
2019-Jun-07 21:00N 69°39' E 018°59'0 0.0
2019-Jun-07 20:30N 69°39' E 018°59'0 0.0
2019-Jun-07 20:00N 69°39' E 018°59'0 0.0
2019-Jun-07 19:30N 69°39' E 018°59'0 0.0
2019-Jun-07 19:00N 69°39' E 018°59'0 0.0
2019-Jun-07 18:30N 69°39' E 018°59'0 0.0
2019-Jun-07 18:01N 69°39' E 018°59'0 0.0
2019-Jun-07 17:30N 69°39' E 018°59'0 0.0
2019-Jun-07 17:00N 69°39' E 018°59'0 0.0
2019-Jun-07 16:31N 69°39' E 018°59'0 0.0
2019-Jun-07 16:00N 69°39' E 018°59'0 0.0
2019-Jun-07 15:30N 69°39' E 018°59'3 5.2
2019-Jun-07 15:00N 69°41' E 019°01'1 2.3
2019-Jun-07 14:30N 69°42' E 019°02'0 0.2
2019-Jun-07 14:00N 69°42' E 019°02'0 0.0
2019-Jun-07 13:31N 69°42' E 019°02'0 0.0
2019-Jun-07 13:00N 69°42' E 019°02'0 0.0
2019-Jun-07 12:30N 69°42' E 019°02'0 0.0
2019-Jun-07 12:00N 69°42' E 019°02'0 0.0
2019-Jun-07 11:30N 69°42' E 019°02'0 0.0
2019-Jun-07 11:00N 69°42' E 019°02'0 0.0
2019-Jun-07 10:31N 69°42' E 019°02'0 0.0
2019-Jun-07 10:00N 69°42' E 019°02'0 0.0
2019-Jun-07 09:31N 69°42' E 019°02'0 0.0
2019-Jun-07 09:01N 69°42' E 019°02'0 0.0
2019-Jun-07 06:25N 69°42' E 019°02'0 0.0
2019-Jun-07 06:00N 69°42' E 019°02'0 0.0
2019-Jun-07 05:30N 69°42' E 019°02'0 0.0
2019-Jun-07 05:00N 69°42' E 019°02'0 0.0
2019-Jun-07 04:30N 69°42' E 019°02'0 0.0
2019-Jun-07 04:00N 69°42' E 019°02'0 0.0
2019-Jun-07 03:30N 69°42' E 019°02'0 0.0
2019-Jun-07 02:59N 69°42' E 019°02'0 0.0
2019-Jun-07 02:30N 69°42' E 019°02'0 0.0
2019-Jun-07 02:00N 69°42' E 019°02'0 0.0
2019-Jun-07 01:30N 69°42' E 019°02'0 0.0
2019-Jun-07 01:00N 69°42' E 019°02'0 0.0
2019-Jun-07 00:30N 69°42' E 019°02'0 0.0
2019-Jun-07 00:00N 69°42' E 019°02'0 0.0
2019-Jun-06 23:30N 69°42' E 019°02'0 0.0
2019-Jun-06 23:00N 69°42' E 019°02'0 0.0
2019-Jun-06 22:30N 69°42' E 019°02'0 0.0
2019-Jun-06 22:00N 69°42' E 019°02'0 0.0
2019-Jun-06 21:30N 69°42' E 019°02'0 0.0
2019-Jun-06 21:00N 69°42' E 019°02'0 0.0
2019-Jun-06 20:30N 69°42' E 019°02'0 0.0
2019-Jun-06 20:00N 69°42' E 019°02'0 0.0
2019-Jun-06 19:30N 69°42' E 019°02'0 0.0
2019-Jun-06 19:00N 69°42' E 019°02'0 0.0
2019-Jun-06 18:30N 69°42' E 019°02'0 0.0
2019-Jun-06 18:00N 69°42' E 019°02'0 0.0
2019-Jun-06 17:30N 69°42' E 019°02'0 0.0
2019-Jun-06 17:00N 69°42' E 019°02'0 0.0
2019-Jun-06 16:30N 69°42' E 019°02'0 0.0
2019-Jun-06 16:00N 69°42' E 019°02'0 0.0
2019-Jun-06 15:30N 69°42' E 019°02'0 0.0
2019-Jun-06 15:00N 69°42' E 019°02'0 0.0
2019-Jun-06 14:30N 69°42' E 019°02'0 0.0
2019-Jun-06 14:00N 69°42' E 019°02'0 0.0
2019-Jun-06 13:30N 69°42' E 019°02'0 0.0
2019-Jun-06 13:00N 69°42' E 019°02'0 0.0
2019-Jun-06 12:30N 69°42' E 019°02'0 0.0
2019-Jun-06 11:58N 69°42' E 019°02'0 0.0
2019-Jun-06 11:30N 69°42' E 019°02'0 0.0
2019-Jun-06 11:00N 69°42' E 019°02'0 0.0
2019-Jun-06 10:30N 69°42' E 019°02'0 0.0
2019-Jun-06 10:00N 69°42' E 019°02'0 0.0
2019-Jun-06 09:29N 69°42' E 019°02'0 0.0
2019-Jun-06 08:59N 69°42' E 019°02'0 0.0
2019-Jun-06 08:30N 69°42' E 019°02'0 0.0
2019-Jun-06 08:00N 69°42' E 019°02'0 0.0
2019-Jun-06 07:30N 69°42' E 019°02'0 0.0
2019-Jun-06 07:00N 69°42' E 019°02'0 0.0
2019-Jun-06 06:30N 69°42' E 019°02'0 0.0
2019-Jun-06 06:00N 69°42' E 019°02'0 0.0
2019-Jun-06 05:30N 69°42' E 019°02'0 0.0
2019-Jun-06 05:00N 69°42' E 019°02'0 0.0
2019-Jun-06 04:30N 69°42' E 019°02'0 0.0
2019-Jun-06 04:00N 69°42' E 019°02'0 0.0
2019-Jun-06 03:30N 69°42' E 019°02'0 0.0
2019-Jun-06 03:00N 69°42' E 019°02'0 0.0
2019-Jun-06 02:30N 69°42' E 019°02'0 0.0
2019-Jun-06 02:00N 69°42' E 019°02'0 0.0
2019-Jun-06 01:30N 69°42' E 019°02'0 0.0
2019-Jun-06 01:00N 69°42' E 019°02'0 0.0
2019-Jun-06 00:30N 69°42' E 019°02'0 0.0
2019-Jun-06 00:00N 69°42' E 019°02'0 0.0
2019-Jun-05 23:30N 69°42' E 019°02'0 0.0
2019-Jun-05 23:00N 69°42' E 019°02'0 0.0
2019-Jun-05 22:30N 69°42' E 019°02'0 0.0
2019-Jun-05 22:00N 69°42' E 019°02'0 0.0
2019-Jun-05 21:29N 69°42' E 019°02'0 0.0
2019-Jun-05 21:00N 69°42' E 019°02'0 0.0
2019-Jun-05 20:30N 69°42' E 019°02'0 0.0
2019-Jun-05 19:59N 69°42' E 019°02'0 0.0
2019-Jun-05 19:30N 69°42' E 019°02'0 0.0
2019-Jun-05 19:00N 69°42' E 019°02'0 0.0
2019-Jun-05 18:29N 69°42' E 019°02'0 0.0
2019-Jun-05 18:00N 69°42' E 019°02'0 0.0
2019-Jun-05 17:30N 69°42' E 019°02'0 0.0
2019-Jun-05 17:00N 69°42' E 019°02'0 0.0
2019-Jun-05 16:29N 69°42' E 019°02'0 0.0
2019-Jun-05 16:00N 69°42' E 019°02'0 0.0
2019-Jun-05 15:30N 69°42' E 019°02'0 0.0
2019-Jun-05 14:59N 69°42' E 019°02'0 0.0
2019-Jun-05 14:30N 69°42' E 019°02'0 0.0
2019-Jun-05 14:00N 69°42' E 019°02'0 0.0
2019-Jun-05 13:30N 69°42' E 019°02'0 0.0
2019-Jun-05 13:00N 69°42' E 019°02'0 0.0
2019-Jun-05 12:29N 69°42' E 019°02'0 0.0
2019-Jun-05 12:00N 69°42' E 019°02'0 0.0
2019-Jun-05 11:30N 69°42' E 019°02'0 0.0
2019-Jun-05 11:00N 69°42' E 019°02'0 0.0
2019-Jun-05 10:30N 69°42' E 019°02'0 0.0
2019-Jun-05 10:00N 69°42' E 019°02'  
Track history (hours):
 
Tides and Currents Weather Stations Pressure Air Temp Water Temp Dewpoint Dewpoint Depression Visibility Wind Speed Wind Dir Waves Ship Positions

Oceanographic research ship Lance (Norway)

Detailed information on ship capabilities available from University of Delaware's Ocean Information Center and ARCUS's ALIAS (Arctic Logistics Information and Support) project.

Last reported at 2019-Jun-19 20:30 UTC. Time now 2019-Jun-19 20:54 UTC.
Position N 71°05' E 024°30'.

Type: Ship. MMSI: 258236000.

Date/timePositionNaut miles runAvg speedWind from/ knotsBaromVisibWave heightAir tempDewpointWater temp
2019-Jun-19 20:30N 71°05' E 024°30'611.2
2019-Jun-19 20:00N 71°10' E 024°38'511.0
2019-Jun-19 19:31N 71°15' E 024°47'510.9
2019-Jun-19 19:01N 71°20' E 024°55'611.4
2019-Jun-19 18:30N 71°25' E 025°04'611.1
2019-Jun-19 18:00N 71°30' E 025°12'510.9
2019-Jun-19 17:30N 71°34' E 025°20'611.0
2019-Jun-19 17:00N 71°39' E 025°28'510.7
2019-Jun-19 16:30N 71°44' E 025°36'510.8
2019-Jun-19 16:00N 71°49' E 025°43'510.7
2019-Jun-19 15:30N 71°54' E 025°51'510.8
2019-Jun-19 15:00N 71°59' E 025°58'510.9
2019-Jun-19 14:31N 72°04' E 026°05'510.8
2019-Jun-19 14:00N 72°09' E 026°12'  
2019-Jun-15 09:58N 72°36' E 027°57'510.4
2019-Jun-15 09:30N 72°32' E 027°48'510.3
2019-Jun-15 09:00N 72°28' E 027°38'510.5
2019-Jun-15 08:30N 72°23' E 027°28'510.6
2019-Jun-15 08:00N 72°19' E 027°18'510.5
2019-Jun-15 07:30N 72°15' E 027°09'610.4
2019-Jun-15 06:54N 72°09' E 026°58'410.3
2019-Jun-15 06:30N 72°06' E 026°51'510.3
2019-Jun-15 06:00N 72°01' E 026°42'510.5
2019-Jun-15 05:30N 71°57' E 026°32'510.4
2019-Jun-15 05:01N 71°53' E 026°23'510.5
2019-Jun-15 04:30N 71°48' E 026°13'510.6
2019-Jun-15 04:00N 71°44' E 026°04'510.5
2019-Jun-15 03:31N 71°40' E 025°54'510.6
2019-Jun-15 03:00N 71°35' E 025°45'510.6
2019-Jun-15 02:30N 71°31' E 025°34'510.9
2019-Jun-15 02:00N 71°27' E 025°24'510.8
2019-Jun-15 01:30N 71°22' E 025°14'510.9
2019-Jun-15 01:00N 71°18' E 025°04'611.1
2019-Jun-15 00:30N 71°14' E 024°53'511.0
2019-Jun-15 00:00N 71°09' E 024°43'611.1
2019-Jun-14 23:30N 71°05' E 024°32'611.2
2019-Jun-14 23:00N 71°00' E 024°22'611.2
2019-Jun-14 22:30N 70°56' E 024°13'611.7
2019-Jun-14 22:00N 70°52' E 023°59'511.0
2019-Jun-14 21:30N 70°48' E 023°47'610.8
2019-Jun-14 21:00N 70°44' E 023°35'510.9
2019-Jun-14 20:30N 70°40' E 023°24'510.9
2019-Jun-14 20:00N 70°36' E 023°14'510.8
2019-Jun-14 19:30N 70°32' E 023°02'510.7
2019-Jun-14 19:00N 70°30' E 022°48'510.9
2019-Jun-14 18:30N 70°28' E 022°32'511.0
2019-Jun-14 18:00N 70°27' E 022°16'510.4
2019-Jun-14 17:30N 70°26' E 022°01'510.3
2019-Jun-14 17:00N 70°24' E 021°46'510.0
2019-Jun-14 16:30N 70°21' E 021°35'510.4
2019-Jun-14 16:00N 70°18' E 021°24'510.6
2019-Jun-14 15:30N 70°15' E 021°11'510.3
2019-Jun-14 15:00N 70°10' E 021°04'510.3
2019-Jun-14 14:30N 70°05' E 020°57'510.0
2019-Jun-14 14:01N 70°02' E 020°46'510.4
2019-Jun-14 13:30N 70°01' E 020°31'510.8
2019-Jun-14 13:00N 69°59' E 020°16'5 9.9
2019-Jun-14 12:31N 69°56' E 020°04'510.1
2019-Jun-14 12:00N 69°53' E 019°53'510.1
2019-Jun-14 11:30N 69°50' E 019°41'5 9.6
2019-Jun-14 11:00N 69°49' E 019°27'5 9.7
2019-Jun-14 10:30N 69°47' E 019°14'6 8.8
2019-Jun-14 09:49N 69°42' E 019°03'5 8.0
2019-Jun-14 09:12N 69°38' E 018°56'0 0.0
2019-Jun-14 09:00N 69°38' E 018°56'0 0.0
2019-Jun-14 08:30N 69°38' E 018°56'0 0.0
2019-Jun-14 08:00N 69°38' E 018°56'0 0.0
2019-Jun-14 07:30N 69°38' E 018°56'0 0.0
2019-Jun-14 07:00N 69°38' E 018°56'0 0.0
2019-Jun-14 06:29N 69°38' E 018°56'0 0.0
2019-Jun-14 06:00N 69°38' E 018°56'0 0.0
2019-Jun-14 05:30N 69°38' E 018°56'0 0.0
2019-Jun-14 05:01N 69°38' E 018°56'0 0.0
2019-Jun-14 04:30N 69°38' E 018°56'0 0.0
2019-Jun-14 04:01N 69°38' E 018°56'0 0.0
2019-Jun-14 03:30N 69°38' E 018°56'0 0.0
2019-Jun-14 03:01N 69°38' E 018°56'0 0.0
2019-Jun-14 02:30N 69°38' E 018°56'0 0.0
2019-Jun-14 02:00N 69°38' E 018°56'0 0.0
2019-Jun-14 01:30N 69°38' E 018°56'0 0.0
2019-Jun-14 01:00N 69°38' E 018°56'0 0.0
2019-Jun-14 00:30N 69°38' E 018°56'0 0.0
2019-Jun-14 00:00N 69°38' E 018°56'0 0.0
2019-Jun-13 23:30N 69°38' E 018°56'0 0.0
2019-Jun-13 23:00N 69°38' E 018°56'0 0.0
2019-Jun-13 22:30N 69°38' E 018°56'0 0.0
2019-Jun-13 22:00N 69°38' E 018°56'0 0.0
2019-Jun-13 21:30N 69°38' E 018°56'0 0.0
2019-Jun-13 21:00N 69°38' E 018°56'0 0.0
2019-Jun-13 20:30N 69°38' E 018°56'0 0.0
2019-Jun-13 20:00N 69°38' E 018°56'0 0.0
2019-Jun-13 19:31N 69°38' E 018°56'0 0.0
2019-Jun-13 16:52N 69°38' E 018°56'0 0.0
2019-Jun-13 16:21N 69°38' E 018°56'0 0.0
2019-Jun-13 16:00N 69°38' E 018°56'0 0.0
2019-Jun-13 15:30N 69°38' E 018°56'0 0.0
2019-Jun-13 15:01N 69°38' E 018°56'0 0.0
2019-Jun-13 14:30N 69°38' E 018°56'0 0.0
2019-Jun-13 14:00N 69°38' E 018°56'0 0.0
2019-Jun-13 13:30N 69°38' E 018°56'0 0.0
2019-Jun-13 13:00N 69°38' E 018°56'0 0.0
2019-Jun-13 12:30N 69°38' E 018°56'0 0.0
2019-Jun-13 12:00N 69°38' E 018°56'0 0.0
2019-Jun-13 11:30N 69°38' E 018°56'0 0.0
2019-Jun-13 11:00N 69°38' E 018°56'0 0.0
2019-Jun-13 10:30N 69°38' E 018°56'0 0.0
2019-Jun-13 10:00N 69°38' E 018°56'0 0.0
2019-Jun-13 09:30N 69°38' E 018°56'0 0.0
2019-Jun-13 09:00N 69°38' E 018°56'0 0.0
2019-Jun-13 08:30N 69°38' E 018°56'0 0.0
2019-Jun-13 08:01N 69°38' E 018°56'0 0.0
2019-Jun-13 07:30N 69°38' E 018°56'0 0.0
2019-Jun-13 07:00N 69°38' E 018°56'0 0.0
2019-Jun-13 06:30N 69°38' E 018°56'0 0.0
2019-Jun-13 06:00N 69°38' E 018°56'0 0.0
2019-Jun-13 05:30N 69°38' E 018°56'0 0.0
2019-Jun-13 05:00N 69°38' E 018°56'0 0.0
2019-Jun-13 04:30N 69°38' E 018°56'0 0.0
2019-Jun-13 04:00N 69°38' E 018°56'0 0.0
2019-Jun-13 03:31N 69°38' E 018°56'0 0.0
2019-Jun-13 03:00N 69°38' E 018°56'0 0.0
2019-Jun-13 02:30N 69°38' E 018°56'0 0.0
2019-Jun-13 02:00N 69°38' E 018°56'0 0.0
2019-Jun-13 01:30N 69°38' E 018°56'0 0.0
2019-Jun-13 01:00N 69°38' E 018°56'0 0.0
2019-Jun-13 00:30N 69°38' E 018°56'0 0.0
2019-Jun-13 00:00N 69°38' E 018°56'0 0.0
2019-Jun-12 23:30N 69°38' E 018°56'0 0.0
2019-Jun-12 23:00N 69°38' E 018°56'0 0.0
2019-Jun-12 22:30N 69°38' E 018°56'0 0.0
2019-Jun-12 22:00N 69°38' E 018°56'0 0.0
2019-Jun-12 21:30N 69°38' E 018°56'0 0.0
2019-Jun-12 21:00N 69°38' E 018°56'0 0.0
2019-Jun-12 20:30N 69°38' E 018°56'0 0.0
2019-Jun-12 20:00N 69°38' E 018°56'0 0.0
2019-Jun-12 19:30N 69°38' E 018°56'0 0.0
2019-Jun-12 19:00N 69°38' E 018°56'0 0.0
2019-Jun-12 18:30N 69°38' E 018°56'0 0.0
2019-Jun-12 18:01N 69°38' E 018°56'0 0.0
2019-Jun-12 17:31N 69°38' E 018°56'0 0.0
2019-Jun-12 17:00N 69°38' E 018°56'0 0.0
2019-Jun-12 16:30N 69°38' E 018°56'0 0.0
2019-Jun-12 16:01N 69°38' E 018°56'0 0.0
2019-Jun-12 15:30N 69°38' E 018°56'0 0.0
2019-Jun-12 15:00N 69°38' E 018°56'0 0.0
2019-Jun-12 14:30N 69°38' E 018°56'0 0.0
2019-Jun-12 14:01N 69°38' E 018°56'0 0.0
2019-Jun-12 13:30N 69°38' E 018°56'0 0.0
2019-Jun-12 13:00N 69°38' E 018°56'0 0.0
2019-Jun-12 12:30N 69°38' E 018°56'0 0.0
2019-Jun-12 12:00N 69°38' E 018°56'0 0.0
2019-Jun-12 11:30N 69°38' E 018°56'0 0.0
2019-Jun-12 10:59N 69°38' E 018°56'0 0.0
2019-Jun-12 10:31N 69°38' E 018°56'0 0.0
2019-Jun-12 10:00N 69°38' E 018°56'0 0.0
2019-Jun-12 09:30N 69°38' E 018°56'0 0.0
2019-Jun-12 09:00N 69°38' E 018°56'0 0.0
2019-Jun-12 08:30N 69°38' E 018°56'0 0.0
2019-Jun-12 08:00N 69°38' E 018°56'0 0.0
2019-Jun-12 07:30N 69°38' E 018°56'0 0.0
2019-Jun-12 07:00N 69°38' E 018°56'0 0.1
2019-Jun-12 06:30N 69°38' E 018°56'0 0.1
2019-Jun-12 06:00N 69°38' E 018°56'0 0.0
2019-Jun-12 05:30N 69°38' E 018°56'0 0.0
2019-Jun-12 05:01N 69°38' E 018°56'0 0.0
2019-Jun-12 04:30N 69°38' E 018°56'0 0.0
2019-Jun-12 04:00N 69°38' E 018°56'0 0.0
2019-Jun-12 03:30N 69°38' E 018°56'0 0.0
2019-Jun-12 03:00N 69°38' E 018°56'0 0.0
2019-Jun-12 02:00N 69°38' E 018°56'0 0.0
2019-Jun-12 01:30N 69°38' E 018°56'0 0.0
2019-Jun-12 01:00N 69°38' E 018°56'0 0.0
2019-Jun-12 00:30N 69°38' E 018°56'0 0.0
2019-Jun-12 00:00N 69°38' E 018°56'0 0.0
2019-Jun-11 23:30N 69°38' E 018°56'0 0.0
2019-Jun-11 23:01N 69°38' E 018°56'0 0.0
2019-Jun-11 22:30N 69°38' E 018°56'0 0.0
2019-Jun-11 22:00N 69°38' E 018°56'0 0.0
2019-Jun-11 21:30N 69°38' E 018°56'0 0.0
2019-Jun-11 21:00N 69°38' E 018°56'0 0.0
2019-Jun-11 20:30N 69°38' E 018°56'0 0.0
2019-Jun-11 19:59N 69°38' E 018°56'0 0.0
2019-Jun-11 19:30N 69°38' E 018°56'0 0.0
2019-Jun-11 19:00N 69°38' E 018°56'0 0.0
2019-Jun-11 18:30N 69°38' E 018°56'0 0.0
2019-Jun-11 18:00N 69°38' E 018°56'0 0.0
2019-Jun-11 17:30N 69°38' E 018°56'0 0.0
2019-Jun-11 17:00N 69°38' E 018°56'0 0.0
2019-Jun-11 16:30N 69°38' E 018°56'0 0.0
2019-Jun-11 16:00N 69°38' E 018°56'0 0.0
2019-Jun-11 15:31N 69°38' E 018°56'0 0.0
2019-Jun-11 15:00N 69°38' E 018°56'0 0.0
2019-Jun-11 14:30N 69°38' E 018°56'0 0.0
2019-Jun-11 14:00N 69°38' E 018°56'0 0.0
2019-Jun-11 13:30N 69°38' E 018°56'0 0.0
2019-Jun-11 13:00N 69°38' E 018°56'0 0.0
2019-Jun-11 12:30N 69°38' E 018°56'0 0.0
2019-Jun-11 12:00N 69°38' E 018°56'0 0.0
2019-Jun-11 11:30N 69°38' E 018°56'0 0.0
2019-Jun-11 11:00N 69°38' E 018°56'0 0.0
2019-Jun-11 10:30N 69°38' E 018°56'0 0.0
2019-Jun-11 10:01N 69°38' E 018°56'0 0.0
2019-Jun-11 09:30N 69°38' E 018°56'0 0.0
2019-Jun-11 09:00N 69°38' E 018°56'0 0.0
2019-Jun-11 08:30N 69°38' E 018°56'0 0.0
2019-Jun-11 08:00N 69°38' E 018°56'0 0.0
2019-Jun-11 07:31N 69°38' E 018°56'0 0.0
2019-Jun-11 07:00N 69°38' E 018°56'0 0.0
2019-Jun-11 06:30N 69°38' E 018°56'0 0.0
2019-Jun-11 06:00N 69°38' E 018°56'0 0.0
2019-Jun-11 05:31N 69°38' E 018°56'0 0.0
2019-Jun-11 05:01N 69°38' E 018°56'0 0.0
2019-Jun-11 04:31N 69°38' E 018°56'0 0.0
2019-Jun-11 04:01N 69°38' E 018°56'0 0.0
2019-Jun-11 03:30N 69°38' E 018°56'0 0.0
2019-Jun-11 03:00N 69°38' E 018°56'0 0.0
2019-Jun-11 02:30N 69°38' E 018°56'0 0.0
2019-Jun-11 02:00N 69°38' E 018°56'0 0.0
2019-Jun-11 01:30N 69°38' E 018°56'0 0.0
2019-Jun-11 01:00N 69°38' E 018°56'0 0.0
2019-Jun-11 00:30N 69°38' E 018°56'0 0.0
2019-Jun-11 00:01N 69°38' E 018°56'0 0.0
2019-Jun-10 23:30N 69°38' E 018°56'0 0.0
2019-Jun-10 23:00N 69°38' E 018°56'0 0.0
2019-Jun-10 22:30N 69°38' E 018°56'0 0.0
2019-Jun-10 22:01N 69°38' E 018°56'0 0.0
2019-Jun-10 21:31N 69°38' E 018°56'0 0.0
2019-Jun-10 21:00N 69°38' E 018°56'0 0.0
2019-Jun-10 20:29N 69°38' E 018°56'0 0.0
2019-Jun-10 20:01N 69°38' E 018°56'0 0.0
2019-Jun-10 19:30N 69°38' E 018°56'0 0.0
2019-Jun-10 19:00N 69°38' E 018°56'3 5.6
2019-Jun-10 18:31N 69°40' E 019°00'510.6
2019-Jun-10 18:00N 69°46' E 019°06'511.1
2019-Jun-10 17:30N 69°48' E 019°20'511.1
2019-Jun-10 17:00N 69°53' E 019°27'510.9
2019-Jun-10 16:30N 69°57' E 019°38'5 9.4
2019-Jun-10 16:00N 70°02' E 019°39'2 5.0
2019-Jun-10 15:30N 70°01' E 019°33'1 2.5
2019-Jun-10 15:00N 69°60' E 019°33'0 0.0
2019-Jun-10 14:30N 69°60' E 019°34'0 0.0
2019-Jun-10 14:01N 69°60' E 019°34'0 0.0
2019-Jun-10 13:30N 69°60' E 019°34'0 0.0
2019-Jun-10 13:00N 69°60' E 019°34'0 0.0
2019-Jun-10 12:30N 69°60' E 019°34'0 0.0
2019-Jun-10 12:00N 69°60' E 019°34'2 3.4
2019-Jun-10 11:30N 70°01' E 019°33'3 5.6
2019-Jun-10 11:00N 70°01' E 019°41'4 8.9
2019-Jun-10 10:31N 69°57' E 019°36'5 9.6
2019-Jun-10 10:00N 69°53' E 019°27'5 9.5
2019-Jun-10 09:30N 69°49' E 019°21'4 8.9
2019-Jun-10 09:00N 69°46' E 019°10'4 8.3
2019-Jun-10 08:30N 69°43' E 019°03'4 8.4
2019-Jun-10 08:00N 69°39' E 018°59'0 0.6
2019-Jun-10 07:30N 69°39' E 018°59'0 0.0
2019-Jun-10 07:00N 69°39' E 018°59'0 0.0
2019-Jun-10 06:30N 69°39' E 018°59'0 0.0
2019-Jun-10 06:00N 69°39' E 018°59'0 0.0
2019-Jun-10 05:30N 69°39' E 018°59'0 0.0
2019-Jun-10 05:00N 69°39' E 018°59'0 0.0
2019-Jun-10 04:30N 69°39' E 018°59'0 0.0
2019-Jun-10 04:00N 69°39' E 018°59'0 0.0
2019-Jun-10 03:31N 69°39' E 018°59'0 0.0
2019-Jun-10 03:00N 69°39' E 018°59'0 0.0
2019-Jun-10 02:30N 69°39' E 018°59'0 0.0
2019-Jun-10 02:00N 69°39' E 018°59'0 0.0
2019-Jun-10 01:30N 69°39' E 018°59'0 0.0
2019-Jun-10 01:00N 69°39' E 018°59'0 0.0
2019-Jun-10 00:30N 69°39' E 018°59'0 0.0
2019-Jun-10 00:00N 69°39' E 018°59'0 0.0
2019-Jun-09 23:30N 69°39' E 018°59'0 0.0
2019-Jun-09 23:01N 69°39' E 018°59'0 0.0
2019-Jun-09 22:30N 69°39' E 018°59'0 0.0
2019-Jun-09 22:00N 69°39' E 018°59'0 0.0
2019-Jun-09 21:30N 69°39' E 018°59'0 0.0
2019-Jun-09 21:00N 69°39' E 018°59'0 0.0
2019-Jun-09 20:31N 69°39' E 018°59'0 0.0
2019-Jun-09 20:00N 69°39' E 018°59'0 0.0
2019-Jun-09 19:30N 69°39' E 018°59'0 0.0
2019-Jun-09 19:00N 69°39' E 018°59'0 0.0
2019-Jun-09 18:31N 69°39' E 018°59'0 0.0
2019-Jun-09 17:59N 69°39' E 018°59'0 0.0
2019-Jun-09 17:30N 69°39' E 018°59'0 0.0
2019-Jun-09 17:00N 69°39' E 018°59'0 0.0
2019-Jun-09 16:30N 69°39' E 018°59'0 0.0
2019-Jun-09 16:00N 69°39' E 018°59'0 0.0
2019-Jun-09 15:30N 69°39' E 018°59'0 0.0
2019-Jun-09 15:00N 69°39' E 018°59'0 0.0
2019-Jun-09 14:30N 69°39' E 018°59'0 0.0
2019-Jun-09 14:00N 69°39' E 018°59'0 0.0
2019-Jun-09 13:30N 69°39' E 018°59'0 0.0
2019-Jun-09 13:00N 69°39' E 018°59'0 0.0
2019-Jun-09 12:30N 69°39' E 018°59'0 0.0
2019-Jun-09 12:00N 69°39' E 018°59'0 0.0
2019-Jun-09 11:29N 69°39' E 018°59'0 0.0
2019-Jun-09 11:00N 69°39' E 018°59'0 0.0
2019-Jun-09 10:31N 69°39' E 018°59'0 0.0
2019-Jun-09 10:00N 69°39' E 018°59'0 0.0
2019-Jun-09 09:30N 69°39' E 018°59'0 0.0
2019-Jun-09 09:00N 69°39' E 018°59'0 0.0
2019-Jun-09 08:30N 69°39' E 018°59'0 0.0
2019-Jun-09 08:00N 69°39' E 018°59'0 0.0
2019-Jun-09 07:30N 69°39' E 018°59'0 0.0
2019-Jun-09 07:00N 69°39' E 018°59'0 0.0
2019-Jun-09 06:31N 69°39' E 018°59'0 0.0
2019-Jun-09 06:00N 69°39' E 018°59'0 0.0
2019-Jun-09 05:30N 69°39' E 018°59'0 0.0
2019-Jun-09 05:00N 69°39' E 018°59'0 0.0
2019-Jun-09 04:00N 69°39' E 018°59'0 0.0
2019-Jun-09 03:30N 69°39' E 018°59'0 0.0
2019-Jun-09 03:00N 69°39' E 018°59'0 0.0
2019-Jun-09 02:30N 69°39' E 018°59'0 0.0
2019-Jun-09 02:01N 69°39' E 018°59'0 0.0
2019-Jun-09 01:30N 69°39' E 018°59'0 0.0
2019-Jun-09 01:00N 69°39' E 018°59'0 0.0
2019-Jun-09 00:30N 69°39' E 018°59'0 0.0
2019-Jun-09 00:00N 69°39' E 018°59'0 0.0
2019-Jun-08 23:30N 69°39' E 018°59'0 0.0
2019-Jun-08 23:00N 69°39' E 018°59'0 0.0
2019-Jun-08 22:30N 69°39' E 018°59'0 0.0
2019-Jun-08 22:00N 69°39' E 018°59'0 0.0
2019-Jun-08 21:30N 69°39' E 018°59'0 0.0
2019-Jun-08 21:01N 69°39' E 018°59'0 0.0
2019-Jun-08 20:30N 69°39' E 018°59'0 0.0
2019-Jun-08 20:01N 69°39' E 018°59'0 0.0
2019-Jun-08 19:30N 69°39' E 018°59'0 0.0
2019-Jun-08 19:00N 69°39' E 018°59'0 0.0
2019-Jun-08 18:31N 69°39' E 018°59'0 0.0
2019-Jun-08 18:00N 69°39' E 018°59'0 0.0
2019-Jun-08 17:30N 69°39' E 018°59'0 0.0
2019-Jun-08 17:00N 69°39' E 018°59'0 0.0
2019-Jun-08 16:30N 69°39' E 018°59'0 0.0
2019-Jun-08 16:00N 69°39' E 018°59'0 0.0
2019-Jun-08 15:30N 69°39' E 018°59'0 0.0
2019-Jun-08 15:01N 69°39' E 018°59'0 0.0
2019-Jun-08 14:30N 69°39' E 018°59'0 0.0
2019-Jun-08 14:00N 69°39' E 018°59'0 0.0
2019-Jun-08 13:30N 69°39' E 018°59'0 0.0
2019-Jun-08 13:00N 69°39' E 018°59'0 0.0
2019-Jun-08 12:30N 69°39' E 018°59'0 0.0
2019-Jun-08 12:00N 69°39' E 018°59'0 0.0
2019-Jun-08 11:30N 69°39' E 018°59'0 0.0
2019-Jun-08 11:00N 69°39' E 018°59'0 0.0
2019-Jun-08 10:30N 69°39' E 018°59'0 0.0
2019-Jun-08 10:00N 69°39' E 018°59'0 0.0
2019-Jun-08 09:31N 69°39' E 018°59'0 0.0
2019-Jun-08 09:00N 69°39' E 018°59'0 0.0
2019-Jun-08 08:30N 69°39' E 018°59'0 0.0
2019-Jun-08 08:00N 69°39' E 018°59'0 0.0
2019-Jun-08 07:30N 69°39' E 018°59'0 0.0
2019-Jun-08 07:00N 69°39' E 018°59'0 0.0
2019-Jun-08 06:30N 69°39' E 018°59'0 0.0
2019-Jun-08 06:00N 69°39' E 018°59'0 0.0
2019-Jun-08 05:30N 69°39' E 018°59'0 0.0
2019-Jun-08 05:00N 69°39' E 018°59'0 0.0
2019-Jun-08 04:30N 69°39' E 018°59'0 0.0
2019-Jun-08 04:00N 69°39' E 018°59'0 0.0
2019-Jun-08 03:30N 69°39' E 018°59'0 0.0
2019-Jun-08 03:00N 69°39' E 018°59'0 0.0
2019-Jun-08 02:30N 69°39' E 018°59'0 0.0
2019-Jun-08 02:01N 69°39' E 018°59'0 0.0
2019-Jun-08 01:31N 69°39' E 018°59'0 0.0
2019-Jun-08 01:00N 69°39' E 018°59'0 0.0
2019-Jun-08 00:31N 69°39' E 018°59'0 0.0
2019-Jun-08 00:00N 69°39' E 018°59'0 0.0
2019-Jun-07 23:31N 69°39' E 018°59'0 0.0
2019-Jun-07 23:00N 69°39' E 018°59'0 0.0
2019-Jun-07 22:30N 69°39' E 018°59'0 0.0
2019-Jun-07 22:00N 69°39' E 018°59'0 0.0
2019-Jun-07 21:31N 69°39' E 018°59'0 0.0
2019-Jun-07 21:00N 69°39' E 018°59'0 0.0
2019-Jun-07 20:30N 69°39' E 018°59'0 0.0
2019-Jun-07 20:00N 69°39' E 018°59'0 0.0
2019-Jun-07 19:30N 69°39' E 018°59'0 0.0
2019-Jun-07 19:00N 69°39' E 018°59'0 0.0
2019-Jun-07 18:30N 69°39' E 018°59'0 0.0
2019-Jun-07 18:01N 69°39' E 018°59'0 0.0
2019-Jun-07 17:30N 69°39' E 018°59'0 0.0
2019-Jun-07 17:00N 69°39' E 018°59'0 0.0
2019-Jun-07 16:31N 69°39' E 018°59'0 0.0
2019-Jun-07 16:00N 69°39' E 018°59'0 0.0
2019-Jun-07 15:30N 69°39' E 018°59'3 5.2
2019-Jun-07 15:00N 69°41' E 019°01'1 2.3
2019-Jun-07 14:30N 69°42' E 019°02'0 0.2
2019-Jun-07 14:00N 69°42' E 019°02'0 0.0
2019-Jun-07 13:31N 69°42' E 019°02'0 0.0
2019-Jun-07 13:00N 69°42' E 019°02'0 0.0
2019-Jun-07 12:30N 69°42' E 019°02'0 0.0
2019-Jun-07 12:00N 69°42' E 019°02'0 0.0
2019-Jun-07 11:30N 69°42' E 019°02'0 0.0
2019-Jun-07 11:00N 69°42' E 019°02'0 0.0
2019-Jun-07 10:31N 69°42' E 019°02'0 0.0
2019-Jun-07 10:00N 69°42' E 019°02'0 0.0
2019-Jun-07 09:31N 69°42' E 019°02'0 0.0
2019-Jun-07 09:01N 69°42' E 019°02'0 0.0
2019-Jun-07 06:25N 69°42' E 019°02'0 0.0
2019-Jun-07 06:00N 69°42' E 019°02'0 0.0
2019-Jun-07 05:30N 69°42' E 019°02'0 0.0
2019-Jun-07 05:00N 69°42' E 019°02'0 0.0
2019-Jun-07 04:30N 69°42' E 019°02'0 0.0
2019-Jun-07 04:00N 69°42' E 019°02'0 0.0
2019-Jun-07 03:30N 69°42' E 019°02'0 0.0
2019-Jun-07 02:59N 69°42' E 019°02'0 0.0
2019-Jun-07 02:30N 69°42' E 019°02'0 0.0
2019-Jun-07 02:00N 69°42' E 019°02'0 0.0
2019-Jun-07 01:30N 69°42' E 019°02'0 0.0
2019-Jun-07 01:00N 69°42' E 019°02'0 0.0
2019-Jun-07 00:30N 69°42' E 019°02'0 0.0
2019-Jun-07 00:00N 69°42' E 019°02'0 0.0
2019-Jun-06 23:30N 69°42' E 019°02'0 0.0
2019-Jun-06 23:00N 69°42' E 019°02'0 0.0
2019-Jun-06 22:30N 69°42' E 019°02'0 0.0
2019-Jun-06 22:00N 69°42' E 019°02'0 0.0
2019-Jun-06 21:30N 69°42' E 019°02'0 0.0
2019-Jun-06 21:00N 69°42' E 019°02'0 0.0
2019-Jun-06 20:30N 69°42' E 019°02'0 0.0
2019-Jun-06 20:00N 69°42' E 019°02'0 0.0
2019-Jun-06 19:30N 69°42' E 019°02'0 0.0
2019-Jun-06 19:00N 69°42' E 019°02'0 0.0
2019-Jun-06 18:30N 69°42' E 019°02'0 0.0
2019-Jun-06 18:00N 69°42' E 019°02'0 0.0
2019-Jun-06 17:30N 69°42' E 019°02'0 0.0
2019-Jun-06 17:00N 69°42' E 019°02'0 0.0
2019-Jun-06 16:30N 69°42' E 019°02'0 0.0
2019-Jun-06 16:00N 69°42' E 019°02'0 0.0
2019-Jun-06 15:30N 69°42' E 019°02'0 0.0
2019-Jun-06 15:00N 69°42' E 019°02'0 0.0
2019-Jun-06 14:30N 69°42' E 019°02'0 0.0
2019-Jun-06 14:00N 69°42' E 019°02'0 0.0
2019-Jun-06 13:30N 69°42' E 019°02'0 0.0
2019-Jun-06 13:00N 69°42' E 019°02'0 0.0
2019-Jun-06 12:30N 69°42' E 019°02'0 0.0
2019-Jun-06 11:58N 69°42' E 019°02'0 0.0
2019-Jun-06 11:30N 69°42' E 019°02'0 0.0
2019-Jun-06 11:00N 69°42' E 019°02'0 0.0
2019-Jun-06 10:30N 69°42' E 019°02'0 0.0
2019-Jun-06 10:00N 69°42' E 019°02'0 0.0
2019-Jun-06 09:29N 69°42' E 019°02'0 0.0
2019-Jun-06 08:59N 69°42' E 019°02'0 0.0
2019-Jun-06 08:30N 69°42' E 019°02'0 0.0
2019-Jun-06 08:00N 69°42' E 019°02'0 0.0
2019-Jun-06 07:30N 69°42' E 019°02'0 0.0
2019-Jun-06 07:00N 69°42' E 019°02'0 0.0
2019-Jun-06 06:30N 69°42' E 019°02'0 0.0
2019-Jun-06 06:00N 69°42' E 019°02'0 0.0
2019-Jun-06 05:30N 69°42' E 019°02'0 0.0
2019-Jun-06 05:00N 69°42' E 019°02'0 0.0
2019-Jun-06 04:30N 69°42' E 019°02'0 0.0
2019-Jun-06 04:00N 69°42' E 019°02'0 0.0
2019-Jun-06 03:30N 69°42' E 019°02'0 0.0
2019-Jun-06 03:00N 69°42' E 019°02'0 0.0
2019-Jun-06 02:30N 69°42' E 019°02'0 0.0
2019-Jun-06 02:00N 69°42' E 019°02'0 0.0
2019-Jun-06 01:30N 69°42' E 019°02'0 0.0
2019-Jun-06 01:00N 69°42' E 019°02'0 0.0
2019-Jun-06 00:30N 69°42' E 019°02'0 0.0
2019-Jun-06 00:00N 69°42' E 019°02'0 0.0
2019-Jun-05 23:30N 69°42' E 019°02'0 0.0
2019-Jun-05 23:00N 69°42' E 019°02'0 0.0
2019-Jun-05 22:30N 69°42' E 019°02'0 0.0
2019-Jun-05 22:00N 69°42' E 019°02'0 0.0
2019-Jun-05 21:29N 69°42' E 019°02'0 0.0
2019-Jun-05 21:00N 69°42' E 019°02'0 0.0
2019-Jun-05 20:30N 69°42' E 019°02'0 0.0
2019-Jun-05 19:59N 69°42' E 019°02'0 0.0
2019-Jun-05 19:30N 69°42' E 019°02'0 0.0
2019-Jun-05 19:00N 69°42' E 019°02'0 0.0
2019-Jun-05 18:29N 69°42' E 019°02'0 0.0
2019-Jun-05 18:00N 69°42' E 019°02'0 0.0
2019-Jun-05 17:30N 69°42' E 019°02'0 0.0
2019-Jun-05 17:00N 69°42' E 019°02'0 0.0
2019-Jun-05 16:29N 69°42' E 019°02'0 0.0
2019-Jun-05 16:00N 69°42' E 019°02'0 0.0
2019-Jun-05 15:30N 69°42' E 019°02'0 0.0
2019-Jun-05 14:59N 69°42' E 019°02'0 0.0
2019-Jun-05 14:30N 69°42' E 019°02'0 0.0
2019-Jun-05 14:00N 69°42' E 019°02'0 0.0
2019-Jun-05 13:30N 69°42' E 019°02'0 0.0
2019-Jun-05 13:00N 69°42' E 019°02'0 0.0
2019-Jun-05 12:29N 69°42' E 019°02'0 0.0
2019-Jun-05 12:00N 69°42' E 019°02'0 0.0
2019-Jun-05 11:30N 69°42' E 019°02'0 0.0
2019-Jun-05 11:00N 69°42' E 019°02'0 0.0
2019-Jun-05 10:30N 69°42' E 019°02'0 0.0
2019-Jun-05 10:00N 69°42' E 019°02'  

Dump ship's entire track history